Terminal Aerodrome Forecast
Issued by NWS

Home | Current Version | Previous Version | Text Only | Print | Product List | Glossary On
Versions: 1 2 3 4 5 6 7 8 9 10 11 12 13 14 15
000
FTUS43 KOAX 251130
TAFBFF
TAF
KBFF 251130Z 2512/2612 28010KT P6SM SCT250 WS020/29040KT
     FM251700 29014KT P6SM FEW250
     FM252000 28019G28KT P6SM FEW250
     FM260100 25008KT P6SM BKN200=

USA.gov is the U.S. government's official web portal to all federal, state and local government web resources and services.